sensor_id;sensor_type;location;lat;lon;timestamp;pressure;altitude;pressure_sealevel;temperature
44429;BMP180;30134;47.866;-4.222;2023-04-03T00:00:20;102472.00;;;24.50
44429;BMP180;30134;47.866;-4.222;2023-04-03T00:02:46;102472.00;;;24.50
44429;BMP180;30134;47.866;-4.222;2023-04-03T00:05:12;102471.00;;;24.50
44429;BMP180;30134;47.866;-4.222;2023-04-03T00:07:39;102470.00;;;24.50
44429;BMP180;30134;47.866;-4.222;2023-04-03T00:10:05;102462.00;;;24.50
44429;BMP180;30134;47.866;-4.222;2023-04-03T00:12:32;102462.00;;;24.50
44429;BMP180;30134;47.866;-4.222;2023-04-03T00:14:58;102457.00;;;24.50
44429;BMP180;30134;47.866;-4.222;2023-04-03T00:17:25;102463.00;;;24.50
44429;BMP180;30134;47.866;-4.222;2023-04-03T00:19:52;102462.00;;;24.50
44429;BMP180;30134;47.866;-4.222;2023-04-03T00:22:26;102457.00;;;24.50
44429;BMP180;30134;47.866;-4.222;2023-04-03T00:25:06;102456.00;;;24.50
44429;BMP180;30134;47.866;-4.222;2023-04-03T00:27:32;102462.00;;;24.50
44429;BMP180;30134;47.866;-4.222;2023-04-03T00:29:58;102454.00;;;24.50
44429;BMP180;30134;47.866;-4.222;2023-04-03T00:32:25;102456.00;;;24.50
44429;BMP180;30134;47.866;-4.222;2023-04-03T00:34:51;102457.00;;;24.60
44429;BMP180;30134;47.866;-4.222;2023-04-03T00:37:18;102454.00;;;24.50
44429;BMP180;30134;47.866;-4.222;2023-04-03T00:39:44;102448.00;;;24.50
44429;BMP180;30134;47.866;-4.222;2023-04-03T00:42:11;102445.00;;;24.50
44429;BMP180;30134;47.866;-4.222;2023-04-03T00:47:07;102435.00;;;24.50
44429;BMP180;30134;47.866;-4.222;2023-04-03T00:49:34;102439.00;;;24.50
44429;BMP180;30134;47.866;-4.222;2023-04-03T00:52:02;102444.00;;;24.50
44429;BMP180;30134;47.866;-4.222;2023-04-03T00:54:28;102441.00;;;24.50
44429;BMP180;30134;47.866;-4.222;2023-04-03T00:56:57;102442.00;;;24.50
44429;BMP180;30134;47.866;-4.222;2023-04-03T00:59:30;102437.00;;;24.60
44429;BMP180;30134;47.866;-4.222;2023-04-03T01:01:57;102431.00;;;24.50
44429;BMP180;30134;47.866;-4.222;2023-04-03T01:04:42;102440.00;;;24.50
44429;BMP180;30134;47.866;-4.222;2023-04-03T01:07:12;102435.00;;;24.50
44429;BMP180;30134;47.866;-4.222;2023-04-03T01:09:41;102435.00;;;24.50
44429;BMP180;30134;47.866;-4.222;2023-04-03T01:12:38;102431.00;;;24.50
44429;BMP180;30134;47.866;-4.222;2023-04-03T01:15:10;102434.00;;;24.50
44429;BMP180;30134;47.866;-4.222;2023-04-03T01:25:24;102419.00;;;24.60
44429;BMP180;30134;47.866;-4.222;2023-04-03T01:27:51;102413.00;;;24.60
44429;BMP180;30134;47.866;-4.222;2023-04-03T01:30:19;102414.00;;;24.60
44429;BMP180;30134;47.866;-4.222;2023-04-03T01:32:46;102417.00;;;24.50
44429;BMP180;30134;47.866;-4.222;2023-04-03T01:35:13;102408.00;;;24.50
44429;BMP180;30134;47.866;-4.222;2023-04-03T01:37:39;102409.00;;;24.60
44429;BMP180;30134;47.866;-4.222;2023-04-03T01:40:06;102407.00;;;24.50
44429;BMP180;30134;47.866;-4.222;2023-04-03T01:42:33;102407.00;;;24.60
44429;BMP180;30134;47.866;-4.222;2023-04-03T01:44:59;102402.00;;;24.90
44429;BMP180;30134;47.866;-4.222;2023-04-03T01:47:26;102403.00;;;25.00
44429;BMP180;30134;47.866;-4.222;2023-04-03T01:49:52;102399.00;;;24.70
44429;BMP180;30134;47.866;-4.222;2023-04-03T01:52:18;102395.00;;;24.60
44429;BMP180;30134;47.866;-4.222;2023-04-03T01:54:48;102398.00;;;24.60
44429;BMP180;30134;47.866;-4.222;2023-04-03T01:57:14;102396.00;;;24.60
44429;BMP180;30134;47.866;-4.222;2023-04-03T01:59:41;102388.00;;;24.50
44429;BMP180;30134;47.866;-4.222;2023-04-03T02:02:07;102385.00;;;24.50
44429;BMP180;30134;47.866;-4.222;2023-04-03T02:04:34;102386.00;;;24.50
44429;BMP180;30134;47.866;-4.222;2023-04-03T02:07:00;102383.00;;;24.50
44429;BMP180;30134;47.866;-4.222;2023-04-03T02:09:26;102381.00;;;24.50
44429;BMP180;30134;47.866;-4.222;2023-04-03T02:11:53;102377.00;;;24.60
44429;BMP180;30134;47.866;-4.222;2023-04-03T02:14:20;102377.00;;;24.60
44429;BMP180;30134;47.866;-4.222;2023-04-03T02:16:47;102375.00;;;24.50
44429;BMP180;30134;47.866;-4.222;2023-04-03T02:19:17;102374.00;;;24.50
44429;BMP180;30134;47.866;-4.222;2023-04-03T02:21:43;102372.00;;;24.50
44429;BMP180;30134;47.866;-4.222;2023-04-03T02:24:09;102370.00;;;24.50
44429;BMP180;30134;47.866;-4.222;2023-04-03T02:26:35;102374.00;;;24.50
44429;BMP180;30134;47.866;-4.222;2023-04-03T02:29:02;102377.00;;;24.60
44429;BMP180;30134;47.866;-4.222;2023-04-03T02:31:28;102371.00;;;24.50
44429;BMP180;30134;47.866;-4.222;2023-04-03T02:33:55;102373.00;;;24.50
44429;BMP180;30134;47.866;-4.222;2023-04-03T02:36:21;102369.00;;;24.60
44429;BMP180;30134;47.866;-4.222;2023-04-03T02:38:47;102368.00;;;24.50
44429;BMP180;30134;47.866;-4.222;2023-04-03T02:41:14;102369.00;;;24.50
44429;BMP180;30134;47.866;-4.222;2023-04-03T02:43:40;102368.00;;;24.50
44429;BMP180;30134;47.866;-4.222;2023-04-03T02:46:07;102373.00;;;24.50
44429;BMP180;30134;47.866;-4.222;2023-04-03T02:48:33;102368.00;;;24.50
44429;BMP180;30134;47.866;-4.222;2023-04-03T02:50:59;102361.00;;;24.60
44429;BMP180;30134;47.866;-4.222;2023-04-03T02:53:27;102366.00;;;24.60
44429;BMP180;30134;47.866;-4.222;2023-04-03T02:55:56;102369.00;;;24.50
44429;BMP180;30134;47.866;-4.222;2023-04-03T02:58:22;102360.00;;;24.60
44429;BMP180;30134;47.866;-4.222;2023-04-03T03:00:51;102367.00;;;24.50
44429;BMP180;30134;47.866;-4.222;2023-04-03T03:03:17;102364.00;;;24.60
44429;BMP180;30134;47.866;-4.222;2023-04-03T03:05:43;102362.00;;;24.50
44429;BMP180;30134;47.866;-4.222;2023-04-03T03:08:09;102361.00;;;24.50
44429;BMP180;30134;47.866;-4.222;2023-04-03T03:10:36;102359.00;;;24.60
44429;BMP180;30134;47.866;-4.222;2023-04-03T03:13:02;102364.00;;;24.60
44429;BMP180;30134;47.866;-4.222;2023-04-03T03:15:28;102359.00;;;24.50
44429;BMP180;30134;47.866;-4.222;2023-04-03T03:17:55;102363.00;;;24.60
44429;BMP180;30134;47.866;-4.222;2023-04-03T03:20:21;102357.00;;;24.50
44429;BMP180;30134;47.866;-4.222;2023-04-03T03:22:47;102360.00;;;24.60
44429;BMP180;30134;47.866;-4.222;2023-04-03T03:25:14;102352.00;;;24.50
44429;BMP180;30134;47.866;-4.222;2023-04-03T03:27:40;102355.00;;;24.60
44429;BMP180;30134;47.866;-4.222;2023-04-03T03:30:07;102352.00;;;24.60
44429;BMP180;30134;47.866;-4.222;2023-04-03T03:32:34;102345.00;;;24.60
44429;BMP180;30134;47.866;-4.222;2023-04-03T03:35:00;102347.00;;;24.60
44429;BMP180;30134;47.866;-4.222;2023-04-03T03:37:26;102347.00;;;24.60
44429;BMP180;30134;47.866;-4.222;2023-04-03T03:39:56;102341.00;;;24.60
44429;BMP180;30134;47.866;-4.222;2023-04-03T03:42:22;102334.00;;;24.50
44429;BMP180;30134;47.866;-4.222;2023-04-03T03:44:49;102332.00;;;24.50
44429;BMP180;30134;47.866;-4.222;2023-04-03T03:47:15;102325.00;;;24.50
44429;BMP180;30134;47.866;-4.222;2023-04-03T03:49:41;102323.00;;;24.50
44429;BMP180;30134;47.866;-4.222;2023-04-03T03:52:08;102325.00;;;24.50
44429;BMP180;30134;47.866;-4.222;2023-04-03T03:54:37;102326.00;;;24.60
44429;BMP180;30134;47.866;-4.222;2023-04-03T03:57:04;102323.00;;;24.60
44429;BMP180;30134;47.866;-4.222;2023-04-03T03:59:32;102319.00;;;24.60
44429;BMP180;30134;47.866;-4.222;2023-04-03T04:01:59;102308.00;;;24.50
44429;BMP180;30134;47.866;-4.222;2023-04-03T04:04:25;102314.00;;;24.50
44429;BMP180;30134;47.866;-4.222;2023-04-03T04:06:51;102308.00;;;24.50
44429;BMP180;30134;47.866;-4.222;2023-04-03T04:09:18;102304.00;;;24.50
44429;BMP180;30134;47.866;-4.222;2023-04-03T04:11:44;102303.00;;;24.50
44429;BMP180;30134;47.866;-4.222;2023-04-03T04:14:11;102299.00;;;24.50
44429;BMP180;30134;47.866;-4.222;2023-04-03T04:16:39;102297.00;;;24.50
44429;BMP180;30134;47.866;-4.222;2023-04-03T04:19:05;102296.00;;;24.50
44429;BMP180;30134;47.866;-4.222;2023-04-03T04:21:32;102298.00;;;24.60
44429;BMP180;30134;47.866;-4.222;2023-04-03T04:24:05;102300.00;;;24.60
44429;BMP180;30134;47.866;-4.222;2023-04-03T04:26:32;102284.00;;;24.50
44429;BMP180;30134;47.866;-4.222;2023-04-03T04:28:58;102288.00;;;24.60
44429;BMP180;30134;47.866;-4.222;2023-04-03T04:31:24;102288.00;;;24.50
44429;BMP180;30134;47.866;-4.222;2023-04-03T04:33:51;102281.00;;;24.50
44429;BMP180;30134;47.866;-4.222;2023-04-03T04:36:17;102282.00;;;24.50
44429;BMP180;30134;47.866;-4.222;2023-04-03T04:38:44;102280.00;;;24.50
44429;BMP180;30134;47.866;-4.222;2023-04-03T04:41:10;102279.00;;;24.50
44429;BMP180;30134;47.866;-4.222;2023-04-03T04:43:36;102276.00;;;24.50
44429;BMP180;30134;47.866;-4.222;2023-04-03T04:46:10;102276.00;;;24.50
44429;BMP180;30134;47.866;-4.222;2023-04-03T04:48:45;102275.00;;;24.50
44429;BMP180;30134;47.866;-4.222;2023-04-03T04:51:12;102277.00;;;24.50
44429;BMP180;30134;47.866;-4.222;2023-04-03T04:53:38;102275.00;;;24.60
44429;BMP180;30134;47.866;-4.222;2023-04-03T04:56:05;102276.00;;;24.60
44429;BMP180;30134;47.866;-4.222;2023-04-03T04:58:31;102265.00;;;24.50
44429;BMP180;30134;47.866;-4.222;2023-04-03T05:01:06;102267.00;;;24.50
44429;BMP180;30134;47.866;-4.222;2023-04-03T05:03:33;102260.00;;;24.50
44429;BMP180;30134;47.866;-4.222;2023-04-03T05:05:59;102273.00;;;24.50
44429;BMP180;30134;47.866;-4.222;2023-04-03T05:08:27;102262.00;;;24.50
44429;BMP180;30134;47.866;-4.222;2023-04-03T05:10:53;102265.00;;;24.50
44429;BMP180;30134;47.866;-4.222;2023-04-03T05:13:20;102269.00;;;24.50
44429;BMP180;30134;47.866;-4.222;2023-04-03T05:15:47;102266.00;;;24.50
44429;BMP180;30134;47.866;-4.222;2023-04-03T05:18:13;102266.00;;;24.50
44429;BMP180;30134;47.866;-4.222;2023-04-03T05:20:41;102267.00;;;24.60
44429;BMP180;30134;47.866;-4.222;2023-04-03T05:23:10;102272.00;;;24.50
44429;BMP180;30134;47.866;-4.222;2023-04-03T05:25:40;102261.00;;;24.50
44429;BMP180;30134;47.866;-4.222;2023-04-03T05:28:07;102267.00;;;24.50
44429;BMP180;30134;47.866;-4.222;2023-04-03T05:30:34;102263.00;;;24.60
44429;BMP180;30134;47.866;-4.222;2023-04-03T05:33:00;102275.00;;;24.50
44429;BMP180;30134;47.866;-4.222;2023-04-03T05:35:27;102277.00;;;24.50
44429;BMP180;30134;47.866;-4.222;2023-04-03T05:37:53;102273.00;;;24.60
44429;BMP180;30134;47.866;-4.222;2023-04-03T05:40:20;102274.00;;;24.60
44429;BMP180;30134;47.866;-4.222;2023-04-03T05:42:47;102271.00;;;24.50
44429;BMP180;30134;47.866;-4.222;2023-04-03T05:45:13;102260.00;;;24.60
44429;BMP180;30134;47.866;-4.222;2023-04-03T05:47:46;102264.00;;;24.50
44429;BMP180;30134;47.866;-4.222;2023-04-03T05:50:13;102262.00;;;24.60
44429;BMP180;30134;47.866;-4.222;2023-04-03T05:52:43;102261.00;;;24.50
44429;BMP180;30134;47.866;-4.222;2023-04-03T05:55:10;102260.00;;;24.50
44429;BMP180;30134;47.866;-4.222;2023-04-03T05:57:37;102253.00;;;23.70
44429;BMP180;30134;47.866;-4.222;2023-04-03T06:00:06;102250.00;;;21.50
44429;BMP180;30134;47.866;-4.222;2023-04-03T06:02:33;102252.00;;;21.10
44429;BMP180;30134;47.866;-4.222;2023-04-03T06:04:59;102260.00;;;21.10
44429;BMP180;30134;47.866;-4.222;2023-04-03T06:07:27;102266.00;;;21.00
44429;BMP180;30134;47.866;-4.222;2023-04-03T06:09:55;102263.00;;;20.80
44429;BMP180;30134;47.866;-4.222;2023-04-03T06:12:22;102268.00;;;20.80
44429;BMP180;30134;47.866;-4.222;2023-04-03T06:14:48;102265.00;;;20.60
44429;BMP180;30134;47.866;-4.222;2023-04-03T06:17:15;102269.00;;;20.70
44429;BMP180;30134;47.866;-4.222;2023-04-03T06:19:44;102266.00;;;20.60
44429;BMP180;30134;47.866;-4.222;2023-04-03T06:22:13;102265.00;;;20.60
44429;BMP180;30134;47.866;-4.222;2023-04-03T06:24:40;102265.00;;;20.50
44429;BMP180;30134;47.866;-4.222;2023-04-03T06:27:06;102266.00;;;20.50
44429;BMP180;30134;47.866;-4.222;2023-04-03T06:29:32;102264.00;;;20.50
44429;BMP180;30134;47.866;-4.222;2023-04-03T06:31:58;102262.00;;;20.40
44429;BMP180;30134;47.866;-4.222;2023-04-03T06:34:24;102271.00;;;20.50
44429;BMP180;30134;47.866;-4.222;2023-04-03T06:36:50;102278.00;;;20.50
44429;BMP180;30134;47.866;-4.222;2023-04-03T06:39:19;102278.00;;;20.50
44429;BMP180;30134;47.866;-4.222;2023-04-03T06:41:49;102281.00;;;20.50
44429;BMP180;30134;47.866;-4.222;2023-04-03T06:44:15;102267.00;;;20.50
44429;BMP180;30134;47.866;-4.222;2023-04-03T06:46:43;102274.00;;;20.40
44429;BMP180;30134;47.866;-4.222;2023-04-03T06:49:10;102267.00;;;20.40
44429;BMP180;30134;47.866;-4.222;2023-04-03T06:51:37;102272.00;;;20.50
44429;BMP180;30134;47.866;-4.222;2023-04-03T06:54:05;102277.00;;;20.40
44429;BMP180;30134;47.866;-4.222;2023-04-03T06:56:32;102278.00;;;20.40
44429;BMP180;30134;47.866;-4.222;2023-04-03T06:58:58;102274.00;;;20.40
44429;BMP180;30134;47.866;-4.222;2023-04-03T07:01:27;102274.00;;;20.40
44429;BMP180;30134;47.866;-4.222;2023-04-03T07:03:53;102274.00;;;20.40
44429;BMP180;30134;47.866;-4.222;2023-04-03T07:06:20;102276.00;;;20.30
44429;BMP180;30134;47.866;-4.222;2023-04-03T07:08:47;102281.00;;;20.30
44429;BMP180;30134;47.866;-4.222;2023-04-03T07:11:15;102277.00;;;20.20
44429;BMP180;30134;47.866;-4.222;2023-04-03T07:13:41;102272.00;;;20.20
44429;BMP180;30134;47.866;-4.222;2023-04-03T07:16:09;102281.00;;;20.20
44429;BMP180;30134;47.866;-4.222;2023-04-03T07:18:35;102278.00;;;20.30
44429;BMP180;30134;47.866;-4.222;2023-04-03T07:21:03;102281.00;;;20.30
44429;BMP180;30134;47.866;-4.222;2023-04-03T07:23:31;102281.00;;;20.30
44429;BMP180;30134;47.866;-4.222;2023-04-03T07:25:57;102278.00;;;20.20
44429;BMP180;30134;47.866;-4.222;2023-04-03T07:28:24;102281.00;;;20.30
44429;BMP180;30134;47.866;-4.222;2023-04-03T07:31:06;102278.00;;;20.30
44429;BMP180;30134;47.866;-4.222;2023-04-03T07:33:37;102276.00;;;20.20
44429;BMP180;30134;47.866;-4.222;2023-04-03T07:36:06;102276.00;;;20.20
44429;BMP180;30134;47.866;-4.222;2023-04-03T07:38:34;102272.00;;;20.20
44429;BMP180;30134;47.866;-4.222;2023-04-03T07:41:01;102275.00;;;20.20
44429;BMP180;30134;47.866;-4.222;2023-04-03T07:43:29;102271.00;;;20.20
44429;BMP180;30134;47.866;-4.222;2023-04-03T07:45:56;102274.00;;;20.30
44429;BMP180;30134;47.866;-4.222;2023-04-03T07:48:25;102272.00;;;20.20
44429;BMP180;30134;47.866;-4.222;2023-04-03T07:50:51;102278.00;;;20.20
44429;BMP180;30134;47.866;-4.222;2023-04-03T07:53:18;102272.00;;;20.20
44429;BMP180;30134;47.866;-4.222;2023-04-03T07:55:47;102274.00;;;20.30
44429;BMP180;30134;47.866;-4.222;2023-04-03T07:58:17;102272.00;;;20.20
44429;BMP180;30134;47.866;-4.222;2023-04-03T08:00:44;102262.00;;;20.30
44429;BMP180;30134;47.866;-4.222;2023-04-03T08:03:11;102264.00;;;20.30
44429;BMP180;30134;47.866;-4.222;2023-04-03T08:05:42;102273.00;;;20.30
44429;BMP180;30134;47.866;-4.222;2023-04-03T08:08:10;102274.00;;;20.30
44429;BMP180;30134;47.866;-4.222;2023-04-03T08:10:38;102275.00;;;20.30
44429;BMP180;30134;47.866;-4.222;2023-04-03T08:13:05;102271.00;;;20.30
44429;BMP180;30134;47.866;-4.222;2023-04-03T08:15:36;102272.00;;;20.40
44429;BMP180;30134;47.866;-4.222;2023-04-03T08:18:05;102273.00;;;20.40
44429;BMP180;30134;47.866;-4.222;2023-04-03T08:20:31;102279.00;;;20.40
44429;BMP180;30134;47.866;-4.222;2023-04-03T08:22:57;102277.00;;;20.40
44429;BMP180;30134;47.866;-4.222;2023-04-03T08:25:23;102277.00;;;20.40
44429;BMP180;30134;47.866;-4.222;2023-04-03T08:27:49;102273.00;;;20.40
44429;BMP180;30134;47.866;-4.222;2023-04-03T08:30:15;102269.00;;;20.50
44429;BMP180;30134;47.866;-4.222;2023-04-03T08:32:42;102262.00;;;20.50
44429;BMP180;30134;47.866;-4.222;2023-04-03T08:35:10;102265.00;;;20.50
44429;BMP180;30134;47.866;-4.222;2023-04-03T08:37:37;102260.00;;;20.50
44429;BMP180;30134;47.866;-4.222;2023-04-03T08:40:06;102255.00;;;20.40
44429;BMP180;30134;47.866;-4.222;2023-04-03T08:45:47;102250.00;;;20.50
44429;BMP180;30134;47.866;-4.222;2023-04-03T08:48:45;102249.00;;;20.50
44429;BMP180;30134;47.866;-4.222;2023-04-03T08:51:17;102251.00;;;20.40
44429;BMP180;30134;47.866;-4.222;2023-04-03T08:54:04;102256.00;;;20.40
44429;BMP180;30134;47.866;-4.222;2023-04-03T08:56:34;102248.00;;;20.40
44429;BMP180;30134;47.866;-4.222;2023-04-03T08:59:06;102246.00;;;20.40
44429;BMP180;30134;47.866;-4.222;2023-04-03T09:01:39;102239.00;;;20.40
44429;BMP180;30134;47.866;-4.222;2023-04-03T09:04:14;102239.00;;;20.40
44429;BMP180;30134;47.866;-4.222;2023-04-03T09:06:45;102231.00;;;20.40
44429;BMP180;30134;47.866;-4.222;2023-04-03T09:09:52;102244.00;;;20.50
44429;BMP180;30134;47.866;-4.222;2023-04-03T09:12:44;102231.00;;;20.40
44429;BMP180;30134;47.866;-4.222;2023-04-03T09:15:24;102226.00;;;20.50
44429;BMP180;30134;47.866;-4.222;2023-04-03T09:18:12;102229.00;;;20.50
44429;BMP180;30134;47.866;-4.222;2023-04-03T09:21:41;102219.00;;;20.40
44429;BMP180;30134;47.866;-4.222;2023-04-03T09:24:12;102230.00;;;20.50
44429;BMP180;30134;47.866;-4.222;2023-04-03T09:26:56;102216.00;;;20.40
44429;BMP180;30134;47.866;-4.222;2023-04-03T09:29:25;102215.00;;;20.60
44429;BMP180;30134;47.866;-4.222;2023-04-03T09:32:02;102214.00;;;20.40
44429;BMP180;30134;47.866;-4.222;2023-04-03T09:34:40;102209.00;;;20.30
44429;BMP180;30134;47.866;-4.222;2023-04-03T09:37:07;102207.00;;;20.40
44429;BMP180;30134;47.866;-4.222;2023-04-03T09:39:54;102197.00;;;20.40
44429;BMP180;30134;47.866;-4.222;2023-04-03T09:42:25;102206.00;;;20.40
44429;BMP180;30134;47.866;-4.222;2023-04-03T09:45:00;102196.00;;;20.40
44429;BMP180;30134;47.866;-4.222;2023-04-03T09:47:33;102190.00;;;20.30
44429;BMP180;30134;47.866;-4.222;2023-04-03T09:52:43;102184.00;;;20.40
44429;BMP180;30134;47.866;-4.222;2023-04-03T09:57:45;102183.00;;;20.30
44429;BMP180;30134;47.866;-4.222;2023-04-03T10:00:35;102185.00;;;20.30
44429;BMP180;30134;47.866;-4.222;2023-04-03T10:03:02;102186.00;;;20.30
44429;BMP180;30134;47.866;-4.222;2023-04-03T10:05:41;102181.00;;;20.30
44429;BMP180;30134;47.866;-4.222;2023-04-03T10:08:33;102182.00;;;20.30
44429;BMP180;30134;47.866;-4.222;2023-04-03T10:11:14;102181.00;;;20.30
44429;BMP180;30134;47.866;-4.222;2023-04-03T10:16:50;102168.00;;;20.20
44429;BMP180;30134;47.866;-4.222;2023-04-03T10:25:28;102170.00;;;20.20
44429;BMP180;30134;47.866;-4.222;2023-04-03T10:28:02;102170.00;;;20.20
44429;BMP180;30134;47.866;-4.222;2023-04-03T10:30:46;102169.00;;;20.20
44429;BMP180;30134;47.866;-4.222;2023-04-03T10:39:53;102166.00;;;20.30
44429;BMP180;30134;47.866;-4.222;2023-04-03T10:48:13;102163.00;;;20.20
44429;BMP180;30134;47.866;-4.222;2023-04-03T10:51:05;102154.00;;;20.30
44429;BMP180;30134;47.866;-4.222;2023-04-03T10:57:01;102162.00;;;20.30
44429;BMP180;30134;47.866;-4.222;2023-04-03T10:59:38;102152.00;;;20.30
44429;BMP180;30134;47.866;-4.222;2023-04-03T11:02:48;102143.00;;;20.20
44429;BMP180;30134;47.866;-4.222;2023-04-03T11:05:52;102139.00;;;20.30
44429;BMP180;30134;47.866;-4.222;2023-04-03T11:08:52;102140.00;;;20.20
44429;BMP180;30134;47.866;-4.222;2023-04-03T11:11:35;102147.00;;;20.20
44429;BMP180;30134;47.866;-4.222;2023-04-03T11:14:52;102142.00;;;20.20
44429;BMP180;30134;47.866;-4.222;2023-04-03T11:25:13;102133.00;;;20.20
44429;BMP180;30134;47.866;-4.222;2023-04-03T11:27:49;102129.00;;;20.30
44429;BMP180;30134;47.866;-4.222;2023-04-03T11:30:39;102114.00;;;20.30
44429;BMP180;30134;47.866;-4.222;2023-04-03T11:36:22;102112.00;;;20.20
44429;BMP180;30134;47.866;-4.222;2023-04-03T11:38:54;102113.00;;;20.20
44429;BMP180;30134;47.866;-4.222;2023-04-03T11:41:31;102115.00;;;20.20
44429;BMP180;30134;47.866;-4.222;2023-04-03T11:44:05;102112.00;;;20.20
44429;BMP180;30134;47.866;-4.222;2023-04-03T11:46:58;102107.00;;;20.20
44429;BMP180;30134;47.866;-4.222;2023-04-03T11:50:00;102109.00;;;20.10
44429;BMP180;30134;47.866;-4.222;2023-04-03T12:08:47;102095.00;;;20.10
44429;BMP180;30134;47.866;-4.222;2023-04-03T12:11:45;102093.00;;;20.10
44429;BMP180;30134;47.866;-4.222;2023-04-03T12:14:17;102095.00;;;20.20
44429;BMP180;30134;47.866;-4.222;2023-04-03T12:16:46;102093.00;;;20.10
44429;BMP180;30134;47.866;-4.222;2023-04-03T12:19:37;102100.00;;;20.10
44429;BMP180;30134;47.866;-4.222;2023-04-03T12:22:17;102097.00;;;20.20
44429;BMP180;30134;47.866;-4.222;2023-04-03T12:24:50;102097.00;;;20.10
44429;BMP180;30134;47.866;-4.222;2023-04-03T12:27:32;102084.00;;;20.10
44429;BMP180;30134;47.866;-4.222;2023-04-03T12:30:25;102085.00;;;20.20
44429;BMP180;30134;47.866;-4.222;2023-04-03T12:33:20;102080.00;;;20.10
44429;BMP180;30134;47.866;-4.222;2023-04-03T12:36:09;102079.00;;;20.10
44429;BMP180;30134;47.866;-4.222;2023-04-03T12:39:33;102084.00;;;20.10
44429;BMP180;30134;47.866;-4.222;2023-04-03T12:42:44;102078.00;;;20.10
44429;BMP180;30134;47.866;-4.222;2023-04-03T12:45:21;102073.00;;;20.10
44429;BMP180;30134;47.866;-4.222;2023-04-03T12:47:55;102072.00;;;20.10
44429;BMP180;30134;47.866;-4.222;2023-04-03T12:50:33;102070.00;;;20.10
44429;BMP180;30134;47.866;-4.222;2023-04-03T12:55:58;102058.00;;;20.10
44429;BMP180;30134;47.866;-4.222;2023-04-03T12:58:43;102055.00;;;20.20
44429;BMP180;30134;47.866;-4.222;2023-04-03T13:01:15;102054.00;;;20.20
44429;BMP180;30134;47.866;-4.222;2023-04-03T13:03:47;102055.00;;;20.20
44429;BMP180;30134;47.866;-4.222;2023-04-03T13:06:19;102057.00;;;20.20
44429;BMP180;30134;47.866;-4.222;2023-04-03T13:08:56;102062.00;;;20.30
44429;BMP180;30134;47.866;-4.222;2023-04-03T13:11:37;102061.00;;;20.20
44429;BMP180;30134;47.866;-4.222;2023-04-03T13:14:26;102057.00;;;20.20
44429;BMP180;30134;47.866;-4.222;2023-04-03T13:17:15;102052.00;;;20.20
44429;BMP180;30134;47.866;-4.222;2023-04-03T13:19:43;102049.00;;;20.20
44429;BMP180;30134;47.866;-4.222;2023-04-03T13:23:01;102052.00;;;20.20
44429;BMP180;30134;47.866;-4.222;2023-04-03T13:25:33;102047.00;;;20.30
44429;BMP180;30134;47.866;-4.222;2023-04-03T13:28:01;102045.00;;;20.20
44429;BMP180;30134;47.866;-4.222;2023-04-03T13:30:34;102047.00;;;20.30
44429;BMP180;30134;47.866;-4.222;2023-04-03T13:33:06;102049.00;;;20.20
44429;BMP180;30134;47.866;-4.222;2023-04-03T13:35:37;102049.00;;;20.20
44429;BMP180;30134;47.866;-4.222;2023-04-03T13:38:21;102051.00;;;20.20
44429;BMP180;30134;47.866;-4.222;2023-04-03T13:40:57;102051.00;;;20.20
44429;BMP180;30134;47.866;-4.222;2023-04-03T13:43:28;102048.00;;;20.20
44429;BMP180;30134;47.866;-4.222;2023-04-03T13:46:42;102036.00;;;20.20
44429;BMP180;30134;47.866;-4.222;2023-04-03T13:48:52;102044.00;;;20.20
44429;BMP180;30134;47.866;-4.222;2023-04-03T13:51:28;102030.00;;;20.30
44429;BMP180;30134;47.866;-4.222;2023-04-03T13:54:23;102031.00;;;20.30
44429;BMP180;30134;47.866;-4.222;2023-04-03T13:56:57;102028.00;;;20.20
44429;BMP180;30134;47.866;-4.222;2023-04-03T13:59:35;102023.00;;;20.30
44429;BMP180;30134;47.866;-4.222;2023-04-03T14:02:09;102022.00;;;20.30
44429;BMP180;30134;47.866;-4.222;2023-04-03T14:04:49;102025.00;;;20.20
44429;BMP180;30134;47.866;-4.222;2023-04-03T14:07:17;102019.00;;;20.30
44429;BMP180;30134;47.866;-4.222;2023-04-03T14:09:46;102022.00;;;20.30
44429;BMP180;30134;47.866;-4.222;2023-04-03T14:12:25;102023.00;;;20.20
44429;BMP180;30134;47.866;-4.222;2023-04-03T14:14:52;102015.00;;;20.30
44429;BMP180;30134;47.866;-4.222;2023-04-03T14:17:25;102013.00;;;20.40
44429;BMP180;30134;47.866;-4.222;2023-04-03T14:19:54;102011.00;;;20.90
44429;BMP180;30134;47.866;-4.222;2023-04-03T14:22:27;102009.00;;;21.30
44429;BMP180;30134;47.866;-4.222;2023-04-03T14:24:54;102013.00;;;21.60
44429;BMP180;30134;47.866;-4.222;2023-04-03T14:27:28;102007.00;;;21.70
44429;BMP180;30134;47.866;-4.222;2023-04-03T14:29:58;102004.00;;;21.80
44429;BMP180;30134;47.866;-4.222;2023-04-03T14:32:26;102004.00;;;21.80
44429;BMP180;30134;47.866;-4.222;2023-04-03T14:34:53;101999.00;;;21.80
44429;BMP180;30134;47.866;-4.222;2023-04-03T14:37:25;101999.00;;;21.90
44429;BMP180;30134;47.866;-4.222;2023-04-03T14:39:53;101999.00;;;21.90
44429;BMP180;30134;47.866;-4.222;2023-04-03T14:42:31;102005.00;;;22.00
44429;BMP180;30134;47.866;-4.222;2023-04-03T14:45:00;102001.00;;;22.10
44429;BMP180;30134;47.866;-4.222;2023-04-03T14:47:28;101986.00;;;22.10
44429;BMP180;30134;47.866;-4.222;2023-04-03T14:49:55;101987.00;;;22.10
44429;BMP180;30134;47.866;-4.222;2023-04-03T14:52:29;101986.00;;;22.10
44429;BMP180;30134;47.866;-4.222;2023-04-03T14:54:56;101987.00;;;22.20
44429;BMP180;30134;47.866;-4.222;2023-04-03T14:57:25;101989.00;;;22.20
44429;BMP180;30134;47.866;-4.222;2023-04-03T14:59:53;101975.00;;;22.30
44429;BMP180;30134;47.866;-4.222;2023-04-03T15:02:35;101974.00;;;22.20
44429;BMP180;30134;47.866;-4.222;2023-04-03T15:05:05;101974.00;;;21.90
44429;BMP180;30134;47.866;-4.222;2023-04-03T15:07:36;101969.00;;;22.20
44429;BMP180;30134;47.866;-4.222;2023-04-03T15:10:22;101965.00;;;22.30
44429;BMP180;30134;47.866;-4.222;2023-04-03T15:12:49;101959.00;;;21.20
44429;BMP180;30134;47.866;-4.222;2023-04-03T15:15:18;101953.00;;;21.90
44429;BMP180;30134;47.866;-4.222;2023-04-03T15:17:47;101948.00;;;22.30
44429;BMP180;30134;47.866;-4.222;2023-04-03T15:20:20;101952.00;;;22.50
44429;BMP180;30134;47.866;-4.222;2023-04-03T15:22:46;101954.00;;;22.50